sensor_id;sensor_type;location;lat;lon;timestamp;P1;durP1;ratioP1;P2;durP2;ratioP2
19038;SDS011;9652;49.014;12.052;2023-10-09T00:02:44;2.43;;;2.03;;
19038;SDS011;9652;49.014;12.052;2023-10-09T00:05:13;2.63;;;2.23;;
19038;SDS011;9652;49.014;12.052;2023-10-09T00:07:48;3.17;;;2.00;;
19038;SDS011;9652;49.014;12.052;2023-10-09T00:10:18;3.60;;;2.00;;
19038;SDS011;9652;49.014;12.052;2023-10-09T00:12:46;2.70;;;2.00;;
19038;SDS011;9652;49.014;12.052;2023-10-09T00:15:15;2.63;;;2.10;;
19038;SDS011;9652;49.014;12.052;2023-10-09T00:17:43;2.17;;;1.97;;
19038;SDS011;9652;49.014;12.052;2023-10-09T00:20:12;4.00;;;2.00;;
19038;SDS011;9652;49.014;12.052;2023-10-09T00:22:55;2.30;;;1.93;;
19038;SDS011;9652;49.014;12.052;2023-10-09T00:25:23;3.37;;;2.47;;
19038;SDS011;9652;49.014;12.052;2023-10-09T00:27:55;2.00;;;1.90;;
19038;SDS011;9652;49.014;12.052;2023-10-09T00:30:26;1.97;;;1.87;;
19038;SDS011;9652;49.014;12.052;2023-10-09T00:32:55;2.37;;;2.17;;
19038;SDS011;9652;49.014;12.052;2023-10-09T00:35:26;2.30;;;2.00;;
19038;SDS011;9652;49.014;12.052;2023-10-09T00:38:07;2.20;;;2.00;;
19038;SDS011;9652;49.014;12.052;2023-10-09T00:40:39;2.60;;;1.80;;
19038;SDS011;9652;49.014;12.052;2023-10-09T00:43:11;2.20;;;2.10;;
19038;SDS011;9652;49.014;12.052;2023-10-09T00:45:40;2.23;;;2.03;;
19038;SDS011;9652;49.014;12.052;2023-10-09T00:48:10;2.87;;;2.30;;
19038;SDS011;9652;49.014;12.052;2023-10-09T00:50:40;2.47;;;2.27;;
19038;SDS011;9652;49.014;12.052;2023-10-09T00:53:17;2.93;;;2.57;;
19038;SDS011;9652;49.014;12.052;2023-10-09T00:55:56;2.30;;;2.10;;
19038;SDS011;9652;49.014;12.052;2023-10-09T00:58:31;2.87;;;2.30;;
19038;SDS011;9652;49.014;12.052;2023-10-09T01:01:02;3.20;;;2.00;;
19038;SDS011;9652;49.014;12.052;2023-10-09T01:03:34;3.77;;;2.23;;
19038;SDS011;9652;49.014;12.052;2023-10-09T01:06:05;2.60;;;2.30;;
19038;SDS011;9652;49.014;12.052;2023-10-09T01:08:42;2.73;;;2.33;;
19038;SDS011;9652;49.014;12.052;2023-10-09T01:11:12;2.67;;;1.93;;
19038;SDS011;9652;49.014;12.052;2023-10-09T01:13:44;3.83;;;2.27;;
19038;SDS011;9652;49.014;12.052;2023-10-09T01:16:21;2.47;;;2.23;;
19038;SDS011;9652;49.014;12.052;2023-10-09T01:18:49;2.20;;;2.00;;
19038;SDS011;9652;49.014;12.052;2023-10-09T01:21:18;3.53;;;2.30;;
19038;SDS011;9652;49.014;12.052;2023-10-09T01:23:51;2.80;;;2.30;;
19038;SDS011;9652;49.014;12.052;2023-10-09T01:26:29;2.90;;;2.60;;
19038;SDS011;9652;49.014;12.052;2023-10-09T01:28:59;2.70;;;2.30;;
19038;SDS011;9652;49.014;12.052;2023-10-09T01:31:27;4.50;;;2.60;;
19038;SDS011;9652;49.014;12.052;2023-10-09T01:34:02;2.87;;;2.53;;
19038;SDS011;9652;49.014;12.052;2023-10-09T01:36:35;3.87;;;2.40;;
19038;SDS011;9652;49.014;12.052;2023-10-09T01:39:06;2.77;;;2.30;;
19038;SDS011;9652;49.014;12.052;2023-10-09T01:41:37;3.10;;;2.33;;
19038;SDS011;9652;49.014;12.052;2023-10-09T01:44:12;5.87;;;2.50;;
19038;SDS011;9652;49.014;12.052;2023-10-09T01:46:41;2.67;;;2.43;;
19038;SDS011;9652;49.014;12.052;2023-10-09T01:49:11;5.20;;;2.83;;
19038;SDS011;9652;49.014;12.052;2023-10-09T01:51:46;3.20;;;2.83;;
19038;SDS011;9652;49.014;12.052;2023-10-09T01:54:16;3.70;;;2.33;;
19038;SDS011;9652;49.014;12.052;2023-10-09T01:56:58;3.17;;;2.77;;
19038;SDS011;9652;49.014;12.052;2023-10-09T01:59:31;2.97;;;2.67;;
19038;SDS011;9652;49.014;12.052;2023-10-09T02:02:03;3.07;;;2.70;;
19038;SDS011;9652;49.014;12.052;2023-10-09T02:04:39;4.00;;;2.80;;
19038;SDS011;9652;49.014;12.052;2023-10-09T02:07:07;4.73;;;3.00;;
19038;SDS011;9652;49.014;12.052;2023-10-09T02:09:36;3.47;;;2.67;;
19038;SDS011;9652;49.014;12.052;2023-10-09T02:12:11;3.43;;;2.70;;
19038;SDS011;9652;49.014;12.052;2023-10-09T02:14:38;3.17;;;2.47;;
19038;SDS011;9652;49.014;12.052;2023-10-09T02:17:07;5.30;;;3.53;;
19038;SDS011;9652;49.014;12.052;2023-10-09T02:19:43;3.80;;;2.90;;
19038;SDS011;9652;49.014;12.052;2023-10-09T02:22:14;3.17;;;2.73;;
19038;SDS011;9652;49.014;12.052;2023-10-09T02:24:44;4.00;;;2.87;;
19038;SDS011;9652;49.014;12.052;2023-10-09T02:27:23;3.50;;;2.73;;
19038;SDS011;9652;49.014;12.052;2023-10-09T02:30:11;3.70;;;2.60;;
19038;SDS011;9652;49.014;12.052;2023-10-09T02:32:43;5.70;;;3.23;;
19038;SDS011;9652;49.014;12.052;2023-10-09T02:35:14;3.63;;;2.33;;
19038;SDS011;9652;49.014;12.052;2023-10-09T02:37:56;5.20;;;3.13;;
19038;SDS011;9652;49.014;12.052;2023-10-09T02:40:27;3.37;;;3.07;;
19038;SDS011;9652;49.014;12.052;2023-10-09T02:42:58;5.33;;;2.87;;
19038;SDS011;9652;49.014;12.052;2023-10-09T02:45:25;5.10;;;3.07;;
19038;SDS011;9652;49.014;12.052;2023-10-09T02:48:04;4.70;;;3.40;;
19038;SDS011;9652;49.014;12.052;2023-10-09T02:50:36;5.50;;;3.00;;
19038;SDS011;9652;49.014;12.052;2023-10-09T02:53:08;4.27;;;3.33;;
19038;SDS011;9652;49.014;12.052;2023-10-09T02:55:45;4.97;;;3.73;;
19038;SDS011;9652;49.014;12.052;2023-10-09T02:58:28;4.73;;;3.30;;
19038;SDS011;9652;49.014;12.052;2023-10-09T03:00:57;11.17;;;4.23;;
19038;SDS011;9652;49.014;12.052;2023-10-09T03:03:25;4.77;;;4.13;;
19038;SDS011;9652;49.014;12.052;2023-10-09T03:05:53;5.57;;;3.80;;
19038;SDS011;9652;49.014;12.052;2023-10-09T03:08:20;5.90;;;3.83;;
19038;SDS011;9652;49.014;12.052;2023-10-09T03:10:49;5.20;;;3.67;;
19038;SDS011;9652;49.014;12.052;2023-10-09T03:13:16;5.30;;;3.60;;
19038;SDS011;9652;49.014;12.052;2023-10-09T03:15:44;5.47;;;3.80;;
19038;SDS011;9652;49.014;12.052;2023-10-09T03:18:13;6.10;;;3.90;;
19038;SDS011;9652;49.014;12.052;2023-10-09T03:20:41;6.03;;;3.97;;
19038;SDS011;9652;49.014;12.052;2023-10-09T03:23:11;5.47;;;3.77;;
19038;SDS011;9652;49.014;12.052;2023-10-09T03:25:39;5.77;;;3.10;;
19038;SDS011;9652;49.014;12.052;2023-10-09T03:30:52;4.13;;;3.40;;
19038;SDS011;9652;49.014;12.052;2023-10-09T03:33:19;6.53;;;3.93;;
19038;SDS011;9652;49.014;12.052;2023-10-09T03:35:48;4.17;;;3.40;;
19038;SDS011;9652;49.014;12.052;2023-10-09T03:38:15;4.10;;;3.47;;
19038;SDS011;9652;49.014;12.052;2023-10-09T03:40:43;5.97;;;4.13;;
19038;SDS011;9652;49.014;12.052;2023-10-09T03:43:13;4.33;;;3.67;;
19038;SDS011;9652;49.014;12.052;2023-10-09T03:45:40;6.63;;;3.50;;
19038;SDS011;9652;49.014;12.052;2023-10-09T03:48:16;3.57;;;3.17;;
19038;SDS011;9652;49.014;12.052;2023-10-09T03:50:47;4.80;;;3.37;;
19038;SDS011;9652;49.014;12.052;2023-10-09T03:53:24;4.27;;;3.40;;
19038;SDS011;9652;49.014;12.052;2023-10-09T03:55:52;4.77;;;3.53;;
19038;SDS011;9652;49.014;12.052;2023-10-09T03:58:19;4.27;;;3.37;;
19038;SDS011;9652;49.014;12.052;2023-10-09T04:00:47;4.20;;;3.33;;
19038;SDS011;9652;49.014;12.052;2023-10-09T04:03:16;4.17;;;3.73;;
19038;SDS011;9652;49.014;12.052;2023-10-09T04:05:45;4.47;;;3.47;;
19038;SDS011;9652;49.014;12.052;2023-10-09T04:08:12;4.70;;;3.47;;
19038;SDS011;9652;49.014;12.052;2023-10-09T04:10:44;4.40;;;3.30;;
19038;SDS011;9652;49.014;12.052;2023-10-09T04:13:18;6.27;;;3.90;;
19038;SDS011;9652;49.014;12.052;2023-10-09T04:15:49;4.40;;;2.97;;
19038;SDS011;9652;49.014;12.052;2023-10-09T04:18:20;6.57;;;3.37;;
19038;SDS011;9652;49.014;12.052;2023-10-09T04:20:54;4.70;;;3.47;;
19038;SDS011;9652;49.014;12.052;2023-10-09T04:23:44;4.00;;;2.90;;
19038;SDS011;9652;49.014;12.052;2023-10-09T04:26:35;7.63;;;4.00;;
19038;SDS011;9652;49.014;12.052;2023-10-09T04:29:05;4.57;;;3.53;;
19038;SDS011;9652;49.014;12.052;2023-10-09T04:31:35;4.40;;;3.37;;
19038;SDS011;9652;49.014;12.052;2023-10-09T04:34:05;4.80;;;3.87;;
19038;SDS011;9652;49.014;12.052;2023-10-09T04:36:47;5.07;;;3.43;;
19038;SDS011;9652;49.014;12.052;2023-10-09T04:39:17;5.73;;;3.23;;
19038;SDS011;9652;49.014;12.052;2023-10-09T04:42:11;5.30;;;3.30;;
19038;SDS011;9652;49.014;12.052;2023-10-09T04:44:51;5.50;;;3.27;;
19038;SDS011;9652;49.014;12.052;2023-10-09T04:47:36;4.50;;;3.47;;
19038;SDS011;9652;49.014;12.052;2023-10-09T04:50:15;6.63;;;3.53;;
19038;SDS011;9652;49.014;12.052;2023-10-09T04:52:57;3.73;;;3.33;;
19038;SDS011;9652;49.014;12.052;2023-10-09T04:55:44;3.80;;;3.33;;
19038;SDS011;9652;49.014;12.052;2023-10-09T04:58:19;3.93;;;3.40;;
19038;SDS011;9652;49.014;12.052;2023-10-09T05:00:51;6.77;;;3.50;;
19038;SDS011;9652;49.014;12.052;2023-10-09T05:03:41;5.53;;;3.27;;
19038;SDS011;9652;49.014;12.052;2023-10-09T05:06:19;4.17;;;3.10;;
19038;SDS011;9652;49.014;12.052;2023-10-09T05:09:03;3.70;;;2.70;;
19038;SDS011;9652;49.014;12.052;2023-10-09T05:11:40;4.67;;;3.27;;
19038;SDS011;9652;49.014;12.052;2023-10-09T05:14:18;4.00;;;2.80;;
19038;SDS011;9652;49.014;12.052;2023-10-09T05:17:03;4.17;;;3.43;;
19038;SDS011;9652;49.014;12.052;2023-10-09T05:19:34;7.83;;;3.37;;
19038;SDS011;9652;49.014;12.052;2023-10-09T05:22:09;4.13;;;3.40;;
19038;SDS011;9652;49.014;12.052;2023-10-09T05:24:55;5.70;;;3.80;;
19038;SDS011;9652;49.014;12.052;2023-10-09T05:27:22;5.53;;;3.63;;
19038;SDS011;9652;49.014;12.052;2023-10-09T05:30:10;7.17;;;3.40;;
19038;SDS011;9652;49.014;12.052;2023-10-09T05:32:53;6.57;;;3.53;;
19038;SDS011;9652;49.014;12.052;2023-10-09T05:35:23;3.97;;;3.30;;
19038;SDS011;9652;49.014;12.052;2023-10-09T05:38:07;4.40;;;3.67;;
19038;SDS011;9652;49.014;12.052;2023-10-09T05:40:50;5.77;;;3.27;;
19038;SDS011;9652;49.014;12.052;2023-10-09T05:43:19;4.37;;;3.50;;
19038;SDS011;9652;49.014;12.052;2023-10-09T05:46:04;4.37;;;3.30;;
19038;SDS011;9652;49.014;12.052;2023-10-09T05:48:35;4.27;;;3.13;;
19038;SDS011;9652;49.014;12.052;2023-10-09T05:51:20;9.83;;;3.10;;
19038;SDS011;9652;49.014;12.052;2023-10-09T05:54:06;4.93;;;3.37;;
19038;SDS011;9652;49.014;12.052;2023-10-09T05:56:51;4.63;;;3.90;;
19038;SDS011;9652;49.014;12.052;2023-10-09T05:59:36;4.77;;;3.53;;
19038;SDS011;9652;49.014;12.052;2023-10-09T06:02:21;5.03;;;3.50;;
19038;SDS011;9652;49.014;12.052;2023-10-09T06:05:06;4.47;;;3.57;;
19038;SDS011;9652;49.014;12.052;2023-10-09T06:07:54;5.97;;;3.90;;
19038;SDS011;9652;49.014;12.052;2023-10-09T06:10:33;7.23;;;3.67;;
19038;SDS011;9652;49.014;12.052;2023-10-09T06:13:06;3.53;;;3.20;;
19038;SDS011;9652;49.014;12.052;2023-10-09T06:15:54;4.17;;;3.43;;
19038;SDS011;9652;49.014;12.052;2023-10-09T06:18:41;5.60;;;4.10;;
19038;SDS011;9652;49.014;12.052;2023-10-09T06:21:08;5.30;;;3.67;;
19038;SDS011;9652;49.014;12.052;2023-10-09T06:23:55;5.13;;;3.70;;
19038;SDS011;9652;49.014;12.052;2023-10-09T06:26:43;6.20;;;3.70;;
19038;SDS011;9652;49.014;12.052;2023-10-09T06:29:28;6.57;;;4.20;;
19038;SDS011;9652;49.014;12.052;2023-10-09T06:32:00;3.87;;;3.47;;
19038;SDS011;9652;49.014;12.052;2023-10-09T06:34:59;5.83;;;3.60;;
19038;SDS011;9652;49.014;12.052;2023-10-09T06:37:44;10.80;;;3.83;;
19038;SDS011;9652;49.014;12.052;2023-10-09T06:40:30;5.43;;;3.90;;
19038;SDS011;9652;49.014;12.052;2023-10-09T06:43:21;11.97;;;3.60;;
19038;SDS011;9652;49.014;12.052;2023-10-09T06:45:57;5.57;;;3.57;;
19038;SDS011;9652;49.014;12.052;2023-10-09T06:48:45;5.50;;;3.57;;
19038;SDS011;9652;49.014;12.052;2023-10-09T06:51:11;6.77;;;4.27;;
19038;SDS011;9652;49.014;12.052;2023-10-09T06:54:01;6.67;;;3.50;;
19038;SDS011;9652;49.014;12.052;2023-10-09T06:56:34;4.83;;;3.43;;
19038;SDS011;9652;49.014;12.052;2023-10-09T06:59:21;7.47;;;3.57;;
19038;SDS011;9652;49.014;12.052;2023-10-09T07:01:49;10.43;;;3.83;;
19038;SDS011;9652;49.014;12.052;2023-10-09T07:04:31;5.17;;;3.40;;
19038;SDS011;9652;49.014;12.052;2023-10-09T07:07:12;4.27;;;3.47;;
19038;SDS011;9652;49.014;12.052;2023-10-09T07:09:41;9.43;;;4.13;;
19038;SDS011;9652;49.014;12.052;2023-10-09T07:12:29;6.23;;;3.73;;
19038;SDS011;9652;49.014;12.052;2023-10-09T07:14:59;7.00;;;3.90;;
19038;SDS011;9652;49.014;12.052;2023-10-09T07:17:43;7.63;;;4.03;;
19038;SDS011;9652;49.014;12.052;2023-10-09T07:20:11;4.97;;;3.10;;
19038;SDS011;9652;49.014;12.052;2023-10-09T07:22:39;7.93;;;3.77;;
19038;SDS011;9652;49.014;12.052;2023-10-09T07:25:18;5.27;;;3.83;;
19038;SDS011;9652;49.014;12.052;2023-10-09T07:28:08;7.17;;;3.30;;
19038;SDS011;9652;49.014;12.052;2023-10-09T07:31:03;10.90;;;2.93;;
19038;SDS011;9652;49.014;12.052;2023-10-09T07:33:34;3.40;;;2.73;;
19038;SDS011;9652;49.014;12.052;2023-10-09T07:36:15;8.53;;;3.53;;
19038;SDS011;9652;49.014;12.052;2023-10-09T07:38:55;6.63;;;2.83;;
19038;SDS011;9652;49.014;12.052;2023-10-09T07:41:29;8.70;;;3.30;;
19038;SDS011;9652;49.014;12.052;2023-10-09T07:44:05;5.33;;;2.77;;
19038;SDS011;9652;49.014;12.052;2023-10-09T07:47:01;6.23;;;2.97;;
19038;SDS011;9652;49.014;12.052;2023-10-09T07:49:44;6.07;;;3.23;;
19038;SDS011;9652;49.014;12.052;2023-10-09T07:52:17;5.27;;;2.80;;
19038;SDS011;9652;49.014;12.052;2023-10-09T07:54:47;4.73;;;3.20;;
19038;SDS011;9652;49.014;12.052;2023-10-09T07:57:26;4.43;;;2.80;;
19038;SDS011;9652;49.014;12.052;2023-10-09T08:00:04;9.70;;;3.07;;
19038;SDS011;9652;49.014;12.052;2023-10-09T08:03:00;7.20;;;3.43;;
19038;SDS011;9652;49.014;12.052;2023-10-09T08:05:34;5.93;;;3.30;;
19038;SDS011;9652;49.014;12.052;2023-10-09T08:08:09;4.87;;;3.23;;
19038;SDS011;9652;49.014;12.052;2023-10-09T08:10:59;9.07;;;3.50;;
19038;SDS011;9652;49.014;12.052;2023-10-09T08:13:44;5.47;;;3.37;;
19038;SDS011;9652;49.014;12.052;2023-10-09T08:16:26;6.83;;;2.80;;
19038;SDS011;9652;49.014;12.052;2023-10-09T08:19:03;7.63;;;3.50;;
19038;SDS011;9652;49.014;12.052;2023-10-09T08:21:56;4.03;;;2.53;;
19038;SDS011;9652;49.014;12.052;2023-10-09T08:25:02;5.90;;;2.77;;
19038;SDS011;9652;49.014;12.052;2023-10-09T08:27:30;7.57;;;2.57;;
19038;SDS011;9652;49.014;12.052;2023-10-09T08:30:12;8.53;;;2.80;;
19038;SDS011;9652;49.014;12.052;2023-10-09T08:32:53;9.27;;;2.60;;
19038;SDS011;9652;49.014;12.052;2023-10-09T08:35:29;8.73;;;2.77;;
19038;SDS011;9652;49.014;12.052;2023-10-09T08:37:58;7.43;;;3.07;;
19038;SDS011;9652;49.014;12.052;2023-10-09T08:40:33;7.60;;;2.77;;
19038;SDS011;9652;49.014;12.052;2023-10-09T08:43:05;10.60;;;3.50;;
19038;SDS011;9652;49.014;12.052;2023-10-09T08:45:37;8.97;;;3.97;;
19038;SDS011;9652;49.014;12.052;2023-10-09T08:48:06;5.40;;;3.10;;
19038;SDS011;9652;49.014;12.052;2023-10-09T08:50:41;6.63;;;2.77;;
19038;SDS011;9652;49.014;12.052;2023-10-09T08:53:09;7.90;;;2.70;;
19038;SDS011;9652;49.014;12.052;2023-10-09T08:55:38;6.80;;;2.90;;
19038;SDS011;9652;49.014;12.052;2023-10-09T08:58:06;8.83;;;3.50;;
19038;SDS011;9652;49.014;12.052;2023-10-09T09:00:43;8.63;;;3.03;;
19038;SDS011;9652;49.014;12.052;2023-10-09T09:03:12;8.83;;;3.40;;
19038;SDS011;9652;49.014;12.052;2023-10-09T09:05:45;9.37;;;3.43;;
19038;SDS011;9652;49.014;12.052;2023-10-09T09:08:21;6.53;;;2.80;;
19038;SDS011;9652;49.014;12.052;2023-10-09T09:10:57;6.40;;;3.10;;
19038;SDS011;9652;49.014;12.052;2023-10-09T09:13:37;9.47;;;3.93;;
19038;SDS011;9652;49.014;12.052;2023-10-09T09:16:14;8.50;;;3.50;;
19038;SDS011;9652;49.014;12.052;2023-10-09T09:18:49;5.53;;;2.80;;
19038;SDS011;9652;49.014;12.052;2023-10-09T09:21:27;10.63;;;3.47;;
19038;SDS011;9652;49.014;12.052;2023-10-09T09:24:02;8.63;;;3.60;;
19038;SDS011;9652;49.014;12.052;2023-10-09T09:26:41;8.77;;;2.93;;
19038;SDS011;9652;49.014;12.052;2023-10-09T09:29:12;8.10;;;2.83;;
19038;SDS011;9652;49.014;12.052;2023-10-09T09:31:53;13.70;;;3.43;;
19038;SDS011;9652;49.014;12.052;2023-10-09T09:34:22;10.67;;;3.33;;
19038;SDS011;9652;49.014;12.052;2023-10-09T09:36:56;9.57;;;3.63;;
19038;SDS011;9652;49.014;12.052;2023-10-09T09:39:28;10.03;;;3.80;;
19038;SDS011;9652;49.014;12.052;2023-10-09T09:41:56;9.77;;;3.17;;
19038;SDS011;9652;49.014;12.052;2023-10-09T09:44:30;11.87;;;3.30;;
19038;SDS011;9652;49.014;12.052;2023-10-09T09:46:59;10.37;;;3.70;;
19038;SDS011;9652;49.014;12.052;2023-10-09T09:49:29;7.83;;;4.07;;
19038;SDS011;9652;49.014;12.052;2023-10-09T09:52:02;8.57;;;3.30;;
19038;SDS011;9652;49.014;12.052;2023-10-09T09:54:35;7.33;;;3.50;;
19038;SDS011;9652;49.014;12.052;2023-10-09T09:57:07;11.63;;;3.23;;
19038;SDS011;9652;49.014;12.052;2023-10-09T09:59:38;9.60;;;3.47;;
19038;SDS011;9652;49.014;12.052;2023-10-09T10:02:17;10.33;;;2.87;;
19038;SDS011;9652;49.014;12.052;2023-10-09T10:04:55;7.80;;;3.07;;
19038;SDS011;9652;49.014;12.052;2023-10-09T10:07:26;12.13;;;2.97;;
19038;SDS011;9652;49.014;12.052;2023-10-09T10:09:56;5.77;;;2.97;;
19038;SDS011;9652;49.014;12.052;2023-10-09T10:18:31;5.27;;;2.03;;
19038;SDS011;9652;49.014;12.052;2023-10-09T10:21:10;4.33;;;2.43;;
19038;SDS011;9652;49.014;12.052;2023-10-09T10:23:43;9.00;;;3.17;;
19038;SDS011;9652;49.014;12.052;2023-10-09T10:26:16;7.17;;;3.00;;
19038;SDS011;9652;49.014;12.052;2023-10-09T10:31:52;5.57;;;2.77;;
19038;SDS011;9652;49.014;12.052;2023-10-09T10:34:25;6.97;;;2.80;;
19038;SDS011;9652;49.014;12.052;2023-10-09T10:37:21;6.23;;;2.70;;
19038;SDS011;9652;49.014;12.052;2023-10-09T10:39:55;5.73;;;2.77;;
19038;SDS011;9652;49.014;12.052;2023-10-09T10:42:24;8.17;;;3.03;;
19038;SDS011;9652;49.014;12.052;2023-10-09T10:45:00;6.13;;;2.47;;
19038;SDS011;9652;49.014;12.052;2023-10-09T10:47:40;6.50;;;2.63;;
19038;SDS011;9652;49.014;12.052;2023-10-09T10:50:07;6.60;;;3.03;;
19038;SDS011;9652;49.014;12.052;2023-10-09T10:53:07;12.53;;;3.40;;
19038;SDS011;9652;49.014;12.052;2023-10-09T10:55:40;13.47;;;3.73;;
19038;SDS011;9652;49.014;12.052;2023-10-09T10:58:22;8.47;;;3.40;;
19038;SDS011;9652;49.014;12.052;2023-10-09T11:01:00;16.07;;;3.60;;
19038;SDS011;9652;49.014;12.052;2023-10-09T11:03:40;11.80;;;3.10;;
19038;SDS011;9652;49.014;12.052;2023-10-09T11:06:26;12.07;;;3.30;;
19038;SDS011;9652;49.014;12.052;2023-10-09T11:09:02;12.37;;;3.27;;
19038;SDS011;9652;49.014;12.052;2023-10-09T11:11:50;11.47;;;4.27;;
19038;SDS011;9652;49.014;12.052;2023-10-09T11:14:20;8.37;;;3.50;;
19038;SDS011;9652;49.014;12.052;2023-10-09T11:16:48;9.17;;;3.23;;
19038;SDS011;9652;49.014;12.052;2023-10-09T11:19:22;11.37;;;3.30;;
19038;SDS011;9652;49.014;12.052;2023-10-09T11:21:56;5.97;;;3.00;;
19038;SDS011;9652;49.014;12.052;2023-10-09T11:24:48;8.17;;;3.03;;
19038;SDS011;9652;49.014;12.052;2023-10-09T11:27:35;13.77;;;3.40;;
19038;SDS011;9652;49.014;12.052;2023-10-09T11:30:06;9.87;;;2.80;;
19038;SDS011;9652;49.014;12.052;2023-10-09T11:32:36;10.07;;;3.37;;
19038;SDS011;9652;49.014;12.052;2023-10-09T11:35:11;8.33;;;2.63;;
19038;SDS011;9652;49.014;12.052;2023-10-09T11:37:42;8.87;;;3.77;;
19038;SDS011;9652;49.014;12.052;2023-10-09T11:43:01;7.47;;;3.43;;
19038;SDS011;9652;49.014;12.052;2023-10-09T11:45:29;7.83;;;3.53;;
19038;SDS011;9652;49.014;12.052;2023-10-09T11:48:15;10.77;;;3.53;;
19038;SDS011;9652;49.014;12.052;2023-10-09T11:50:53;11.90;;;3.03;;
19038;SDS011;9652;49.014;12.052;2023-10-09T11:53:21;9.40;;;2.57;;
19038;SDS011;9652;49.014;12.052;2023-10-09T11:56:01;8.40;;;3.20;;
19038;SDS011;9652;49.014;12.052;2023-10-09T11:58:29;15.50;;;3.27;;
19038;SDS011;9652;49.014;12.052;2023-10-09T12:00:57;8.30;;;3.13;;
19038;SDS011;9652;49.014;12.052;2023-10-09T12:03:29;18.90;;;3.33;;
19038;SDS011;9652;49.014;12.052;2023-10-09T12:05:58;8.53;;;3.27;;
19038;SDS011;9652;49.014;12.052;2023-10-09T12:08:29;17.07;;;3.70;;
19038;SDS011;9652;49.014;12.052;2023-10-09T12:10:57;15.80;;;3.73;;
19038;SDS011;9652;49.014;12.052;2023-10-09T12:13:29;8.53;;;3.20;;
19038;SDS011;9652;49.014;12.052;2023-10-09T12:15:56;10.70;;;3.60;;
19038;SDS011;9652;49.014;12.052;2023-10-09T12:18:23;6.40;;;3.23;;
19038;SDS011;9652;49.014;12.052;2023-10-09T12:20:50;11.40;;;3.40;;
19038;SDS011;9652;49.014;12.052;2023-10-09T12:23:21;9.63;;;3.27;;
19038;SDS011;9652;49.014;12.052;2023-10-09T12:25:53;5.87;;;2.90;;
19038;SDS011;9652;49.014;12.052;2023-10-09T12:28:21;13.33;;;3.30;;
19038;SDS011;9652;49.014;12.052;2023-10-09T12:30:50;12.30;;;3.73;;
19038;SDS011;9652;49.014;12.052;2023-10-09T12:33:18;7.23;;;2.83;;
19038;SDS011;9652;49.014;12.052;2023-10-09T12:35:52;9.27;;;3.40;;
19038;SDS011;9652;49.014;12.052;2023-10-09T12:38:25;9.40;;;3.40;;
19038;SDS011;9652;49.014;12.052;2023-10-09T12:41:00;16.10;;;3.00;;
19038;SDS011;9652;49.014;12.052;2023-10-09T12:43:33;8.13;;;3.27;;
19038;SDS011;9652;49.014;12.052;2023-10-09T12:46:05;12.83;;;3.70;;
19038;SDS011;9652;49.014;12.052;2023-10-09T12:48:33;6.33;;;2.53;;
19038;SDS011;9652;49.014;12.052;2023-10-09T12:51:01;5.37;;;3.20;;
19038;SDS011;9652;49.014;12.052;2023-10-09T12:53:31;10.60;;;3.67;;
19038;SDS011;9652;49.014;12.052;2023-10-09T12:55:58;12.33;;;3.37;;
19038;SDS011;9652;49.014;12.052;2023-10-09T12:58:26;9.83;;;3.23;;
19038;SDS011;9652;49.014;12.052;2023-10-09T13:00:53;8.23;;;2.97;;
19038;SDS011;9652;49.014;12.052;2023-10-09T13:03:21;10.47;;;3.20;;
19038;SDS011;9652;49.014;12.052;2023-10-09T13:05:53;10.27;;;2.70;;
19038;SDS011;9652;49.014;12.052;2023-10-09T13:08:23;10.63;;;3.07;;
19038;SDS011;9652;49.014;12.052;2023-10-09T13:10:57;7.73;;;2.90;;
19038;SDS011;9652;49.014;12.052;2023-10-09T13:13:36;11.97;;;3.20;;
19038;SDS011;9652;49.014;12.052;2023-10-09T13:16:08;5.23;;;2.77;;
19038;SDS011;9652;49.014;12.052;2023-10-09T13:18:49;8.77;;;3.27;;
19038;SDS011;9652;49.014;12.052;2023-10-09T13:21:17;10.13;;;3.60;;
19038;SDS011;9652;49.014;12.052;2023-10-09T13:23:45;7.90;;;2.93;;
19038;SDS011;9652;49.014;12.052;2023-10-09T13:26:14;14.60;;;3.57;;
19038;SDS011;9652;49.014;12.052;2023-10-09T13:28:49;8.43;;;2.83;;
19038;SDS011;9652;49.014;12.052;2023-10-09T13:31:19;7.83;;;2.90;;
19038;SDS011;9652;49.014;12.052;2023-10-09T13:33:52;7.23;;;2.87;;
19038;SDS011;9652;49.014;12.052;2023-10-09T13:36:21;11.13;;;2.70;;
19038;SDS011;9652;49.014;12.052;2023-10-09T13:38:57;10.60;;;2.93;;
19038;SDS011;9652;49.014;12.052;2023-10-09T13:41:27;19.27;;;3.40;;
19038;SDS011;9652;49.014;12.052;2023-10-09T13:43:55;6.17;;;2.60;;
19038;SDS011;9652;49.014;12.052;2023-10-09T13:46:23;12.50;;;3.37;;
19038;SDS011;9652;49.014;12.052;2023-10-09T13:48:51;8.13;;;2.47;;
19038;SDS011;9652;49.014;12.052;2023-10-09T13:51:18;8.93;;;3.30;;
19038;SDS011;9652;49.014;12.052;2023-10-09T13:53:49;10.43;;;2.70;;
19038;SDS011;9652;49.014;12.052;2023-10-09T13:56:16;7.90;;;3.37;;
19038;SDS011;9652;49.014;12.052;2023-10-09T13:58:46;12.00;;;3.47;;
19038;SDS011;9652;49.014;12.052;2023-10-09T14:01:16;11.97;;;3.03;;
19038;SDS011;9652;49.014;12.052;2023-10-09T14:03:54;12.30;;;2.80;;
19038;SDS011;9652;49.014;12.052;2023-10-09T14:06:22;8.13;;;3.13;;
19038;SDS011;9652;49.014;12.052;2023-10-09T14:08:57;6.47;;;2.80;;
19038;SDS011;9652;49.014;12.052;2023-10-09T14:11:25;10.43;;;2.73;;
19038;SDS011;9652;49.014;12.052;2023-10-09T14:13:53;13.47;;;3.20;;
19038;SDS011;9652;49.014;12.052;2023-10-09T14:16:20;9.27;;;2.60;;
19038;SDS011;9652;49.014;12.052;2023-10-09T14:18:52;11.53;;;3.10;;
19038;SDS011;9652;49.014;12.052;2023-10-09T14:21:24;10.87;;;2.90;;
19038;SDS011;9652;49.014;12.052;2023-10-09T14:23:55;13.17;;;2.73;;
19038;SDS011;9652;49.014;12.052;2023-10-09T14:26:26;11.70;;;2.80;;
19038;SDS011;9652;49.014;12.052;2023-10-09T14:28:55;14.20;;;3.90;;
19038;SDS011;9652;49.014;12.052;2023-10-09T14:31:23;7.17;;;3.27;;
19038;SDS011;9652;49.014;12.052;2023-10-09T14:33:55;9.67;;;2.70;;
19038;SDS011;9652;49.014;12.052;2023-10-09T14:36:23;6.87;;;2.60;;
19038;SDS011;9652;49.014;12.052;2023-10-09T14:38:58;10.17;;;3.03;;
19038;SDS011;9652;49.014;12.052;2023-10-09T14:41:26;8.00;;;2.97;;
19038;SDS011;9652;49.014;12.052;2023-10-09T14:43:58;6.37;;;3.03;;
19038;SDS011;9652;49.014;12.052;2023-10-09T14:46:25;12.33;;;2.70;;
19038;SDS011;9652;49.014;12.052;2023-10-09T14:48:54;8.03;;;2.27;;
19038;SDS011;9652;49.014;12.052;2023-10-09T14:51:22;7.33;;;2.40;;
19038;SDS011;9652;49.014;12.052;2023-10-09T14:53:54;8.40;;;2.40;;
19038;SDS011;9652;49.014;12.052;2023-10-09T14:56:27;8.07;;;2.77;;
19038;SDS011;9652;49.014;12.052;2023-10-09T14:58:59;9.30;;;2.97;;
19038;SDS011;9652;49.014;12.052;2023-10-09T15:01:26;10.63;;;2.47;;
19038;SDS011;9652;49.014;12.052;2023-10-09T15:03:57;8.63;;;2.80;;
19038;SDS011;9652;49.014;12.052;2023-10-09T15:06:26;8.07;;;2.60;;
19038;SDS011;9652;49.014;12.052;2023-10-09T15:08:55;8.17;;;2.97;;
19038;SDS011;9652;49.014;12.052;2023-10-09T15:11:25;9.50;;;2.80;;
19038;SDS011;9652;49.014;12.052;2023-10-09T15:13:55;13.77;;;2.60;;
19038;SDS011;9652;49.014;12.052;2023-10-09T15:16:23;10.90;;;2.87;;
19038;SDS011;9652;49.014;12.052;2023-10-09T15:18:53;10.37;;;2.43;;
19038;SDS011;9652;49.014;12.052;2023-10-09T15:21:30;7.17;;;2.63;;
19038;SDS011;9652;49.014;12.052;2023-10-09T15:23:59;6.27;;;2.60;;
19038;SDS011;9652;49.014;12.052;2023-10-09T15:26:26;10.67;;;2.90;;
19038;SDS011;9652;49.014;12.052;2023-10-09T15:28:59;8.57;;;2.33;;
19038;SDS011;9652;49.014;12.052;2023-10-09T15:31:29;6.50;;;2.30;;
19038;SDS011;9652;49.014;12.052;2023-10-09T15:33:57;8.13;;;2.83;;
19038;SDS011;9652;49.014;12.052;2023-10-09T15:36:25;10.27;;;2.57;;
19038;SDS011;9652;49.014;12.052;2023-10-09T15:38:55;7.40;;;2.23;;
19038;SDS011;9652;49.014;12.052;2023-10-09T15:41:26;10.60;;;2.97;;
19038;SDS011;9652;49.014;12.052;2023-10-09T15:43:56;9.67;;;3.17;;